Time;durP1;ratioP1;P1;durP2;ratioP2;P2;SDS_P1;SDS_P2;PMS_P1;PMS_P2;Temp;Humidity;BMP_temperature;BMP_pressure;BME280_temperature;BME280_humidity;BME280_pressure;Samples;Min_cycle;Max_cycle;Signal;HPM_P1;HPM_P2
2023/03/07 05:40:25;;;;;;;30.45;17.52;;;;;;;;;;4961468;23;20052;-58
2023/03/07 05:42:51;;;;;;;35.83;18.60;;;;;;;;;;4935481;29;20031;-71
2023/03/07 05:45:19;;;;;;;36.95;20.05;;;;;;;;;;4935966;29;20063;-58
2023/03/07 05:47:45;;;;;;;37.97;20.05;;;;;;;;;;4936234;29;20035;-69
2023/03/07 05:50:11;;;;;;;38.05;20.90;;;;;;;;;;4935285;29;20030;-57
2023/03/07 05:52:37;;;;;;;36.90;19.92;;;;;;;;;;4935489;29;20082;-66
2023/03/07 05:55:03;;;;;;;38.65;19.75;;;;;;;;;;4935876;29;20032;-57
2023/03/07 05:57:29;;;;;;;50.22;28.13;;;;;;;;;;4935585;29;20384;-61
2023/03/07 05:59:55;;;;;;;44.33;22.42;;;;;;;;;;4935864;29;20472;-58
2023/03/07 06:02:21;;;;;;;34.70;18.00;;;;;;;;;;4935810;29;20035;-60
2023/03/07 06:04:48;;;;;;;32.80;18.15;;;;;;;;;;4935758;29;20031;-57
2023/03/07 06:07:14;;;;;;;34.13;19.27;;;;;;;;;;4927789;29;20475;-57
2023/03/07 06:09:40;;;;;;;36.38;18.88;;;;;;;;;;4925374;29;20047;-60
2023/03/07 06:12:07;;;;;;;35.95;19.13;;;;;;;;;;4923481;29;20032;-58
2023/03/07 06:14:33;;;;;;;34.17;17.27;;;;;;;;;;4926184;29;20027;-57
2023/03/07 06:17:01;;;;;;;34.45;18.90;;;;;;;;;;4935168;29;20031;-70
2023/03/07 06:19:27;;;;;;;36.47;19.13;;;;;;;;;;4935288;29;20020;-72
2023/03/07 06:21:53;;;;;;;35.47;18.95;;;;;;;;;;4935059;29;20032;-65
2023/03/07 06:24:19;;;;;;;34.70;18.50;;;;;;;;;;4935078;29;20031;-57
2023/03/07 06:26:45;;;;;;;38.17;18.95;;;;;;;;;;4935225;29;20039;-57
2023/03/07 06:29:11;;;;;;;31.67;17.40;;;;;;;;;;4935069;29;20475;-57
2023/03/07 06:31:37;;;;;;;34.72;18.30;;;;;;;;;;4931417;29;20036;-63
2023/03/07 06:34:03;;;;;;;32.53;17.52;;;;;;;;;;4916144;29;20039;-58
2023/03/07 06:36:29;;;;;;;40.53;19.30;;;;;;;;;;4916282;29;20031;-72
2023/03/07 06:38:55;;;;;;;32.10;17.80;;;;;;;;;;4921986;29;20067;-57
2023/03/07 06:41:21;;;;;;;32.40;18.67;;;;;;;;;;4934730;29;20027;-58
2023/03/07 06:43:50;;;;;;;34.97;19.25;;;;;;;;;;4934930;29;20027;-57
2023/03/07 06:46:17;;;;;;;40.13;21.92;;;;;;;;;;4934565;29;20043;-57
2023/03/07 06:48:43;;;;;;;38.25;22.00;;;;;;;;;;4933907;29;20024;-69
2023/03/07 06:51:09;;;;;;;36.88;20.45;;;;;;;;;;4916991;29;20507;-75
2023/03/07 06:53:36;;;;;;;35.03;20.25;;;;;;;;;;4934526;29;20034;-70
2023/03/07 06:56:03;;;;;;;40.28;21.23;;;;;;;;;;4934593;29;20036;-58
2023/03/07 06:58:29;;;;;;;36.17;20.05;;;;;;;;;;4934505;29;20027;-62
2023/03/07 07:00:55;;;;;;;33.15;19.60;;;;;;;;;;4934670;29;20028;-62
2023/03/07 07:03:21;;;;;;;30.33;18.65;;;;;;;;;;4934497;29;20052;-73
2023/03/07 07:05:47;;;;;;;35.20;20.27;;;;;;;;;;4933975;29;20488;-57
2023/03/07 07:08:13;;;;;;;41.97;20.92;;;;;;;;;;4933035;29;20024;-57
2023/03/07 07:10:39;;;;;;;37.45;22.05;;;;;;;;;;4933022;29;20111;-58
2023/03/07 07:13:05;;;;;;;38.25;21.95;;;;;;;;;;4933687;29;20060;-58
2023/03/07 07:15:32;;;;;;;39.97;21.48;;;;;;;;;;4934308;29;20479;-56
2023/03/07 07:17:58;;;;;;;36.40;21.83;;;;;;;;;;4933679;29;20480;-57
2023/03/07 07:20:24;;;;;;;38.97;21.83;;;;;;;;;;4933920;29;20475;-59
2023/03/07 07:22:50;;;;;;;38.85;25.10;;;;;;;;;;4933383;29;20055;-57
2023/03/07 07:25:16;;;;;;;51.47;30.75;;;;;;;;;;4933832;29;20032;-57
2023/03/07 07:27:43;;;;;;;60.20;27.90;;;;;;;;;;4933914;29;20028;-58
2023/03/07 07:30:09;;;;;;;47.05;25.48;;;;;;;;;;4933928;29;20391;-57
2023/03/07 07:32:35;;;;;;;42.05;22.83;;;;;;;;;;4933095;29;20047;-59
2023/03/07 07:35:01;;;;;;;40.83;21.33;;;;;;;;;;4933240;29;20131;-58
2023/03/07 07:37:27;;;;;;;35.28;21.45;;;;;;;;;;4933814;29;20484;-57
2023/03/07 07:39:53;;;;;;;39.67;22.88;;;;;;;;;;4933207;29;20058;-58
2023/03/07 07:42:19;;;;;;;40.45;21.52;;;;;;;;;;4933559;29;20024;-58
2023/03/07 07:44:47;;;;;;;36.80;21.70;;;;;;;;;;4933335;29;20460;-58
2023/03/07 07:47:13;;;;;;;38.08;22.63;;;;;;;;;;4934103;29;20463;-58
2023/03/07 07:49:39;;;;;;;42.95;23.08;;;;;;;;;;4933133;29;20531;-57
2023/03/07 07:52:05;;;;;;;41.50;23.42;;;;;;;;;;4933723;29;20091;-60
2023/03/07 07:54:31;;;;;;;41.00;22.77;;;;;;;;;;4933315;29;20042;-58
2023/03/07 07:56:57;;;;;;;41.15;24.50;;;;;;;;;;4934020;29;20039;-86
2023/03/07 07:59:23;;;;;;;49.78;24.75;;;;;;;;;;4934231;29;20032;-72
2023/03/07 08:01:49;;;;;;;44.67;21.52;;;;;;;;;;4933190;29;20041;-57
2023/03/07 08:04:15;;;;;;;42.13;21.88;;;;;;;;;;4933539;29;20039;-57
2023/03/07 08:06:43;;;;;;;36.85;20.52;;;;;;;;;;4933304;29;20131;-67
2023/03/07 08:09:09;;;;;;;39.53;19.83;;;;;;;;;;4933056;29;20043;-56
2023/03/07 08:11:35;;;;;;;39.95;20.90;;;;;;;;;;4933406;29;20123;-63
2023/03/07 08:14:02;;;;;;;41.03;22.45;;;;;;;;;;4933513;29;20768;-68
2023/03/07 08:16:28;;;;;;;34.55;19.65;;;;;;;;;;4933444;29;20035;-58
2023/03/07 08:18:55;;;;;;;34.22;18.40;;;;;;;;;;4933425;29;20032;-57
2023/03/07 08:21:21;;;;;;;34.00;17.08;;;;;;;;;;4932684;29;20373;-58
2023/03/07 08:23:47;;;;;;;28.02;15.38;;;;;;;;;;4933016;29;20054;-69
2023/03/07 08:26:13;;;;;;;29.38;15.13;;;;;;;;;;4933040;29;20031;-58
2023/03/07 08:28:40;;;;;;;28.15;15.02;;;;;;;;;;4933094;29;20049;-70
2023/03/07 08:31:07;;;;;;;28.77;14.63;;;;;;;;;;4933828;29;20035;-58
2023/03/07 08:33:33;;;;;;;40.50;20.35;;;;;;;;;;4933246;29;20057;-58
2023/03/07 08:36:00;;;;;;;33.50;17.15;;;;;;;;;;4933286;29;20095;-64
2023/03/07 08:38:26;;;;;;;29.55;15.95;;;;;;;;;;4932470;29;20038;-64
2023/03/07 08:40:52;;;;;;;34.58;16.17;;;;;;;;;;4933423;29;20499;-72
2023/03/07 08:43:18;;;;;;;30.42;15.98;;;;;;;;;;4933212;29;20046;-77
2023/03/07 08:45:44;;;;;;;32.38;16.13;;;;;;;;;;4915670;29;20456;-75
2023/03/07 08:48:10;;;;;;;29.38;14.93;;;;;;;;;;4933302;29;20490;-76
2023/03/07 08:50:38;;;;;;;28.58;13.93;;;;;;;;;;4933178;29;20436;-59
2023/03/07 08:53:04;;;;;;;21.23;13.07;;;;;;;;;;4932789;29;20039;-57
2023/03/07 08:55:30;;;;;;;22.27;11.50;;;;;;;;;;4933287;29;20030;-58
2023/03/07 08:57:56;;;;;;;22.15;12.25;;;;;;;;;;4933067;29;20060;-64
2023/03/07 09:00:22;;;;;;;22.35;12.85;;;;;;;;;;4933103;29;20036;-60
2023/03/07 09:02:48;;;;;;;20.80;12.50;;;;;;;;;;4933004;29;20034;-70
2023/03/07 09:05:14;;;;;;;25.33;12.80;;;;;;;;;;4933130;29;20448;-61
2023/03/07 09:07:41;;;;;;;25.50;13.65;;;;;;;;;;4933184;29;20023;-66
2023/03/07 09:10:07;;;;;;;22.63;13.00;;;;;;;;;;4932977;29;20100;-74
2023/03/07 09:12:34;;;;;;;27.30;14.98;;;;;;;;;;4933840;29;20027;-57
2023/03/07 09:15:00;;;;;;;23.13;12.85;;;;;;;;;;4936474;29;20116;-74
2023/03/07 09:17:27;;;;;;;21.80;11.80;;;;;;;;;;4936434;29;20027;-71
2023/03/07 09:19:53;;;;;;;19.80;11.73;;;;;;;;;;4917729;29;20063;-59
2023/03/07 09:22:19;;;;;;;22.35;11.50;;;;;;;;;;4936223;29;20055;-73
2023/03/07 09:24:45;;;;;;;24.85;11.95;;;;;;;;;;4936238;29;20051;-67
2023/03/07 09:27:11;;;;;;;18.77;11.30;;;;;;;;;;4936020;29;20573;-67
2023/03/07 09:29:37;;;;;;;19.17;11.02;;;;;;;;;;4935367;29;20024;-57
2023/03/07 09:32:03;;;;;;;20.70;11.70;;;;;;;;;;4936152;29;20036;-60
2023/03/07 09:34:29;;;;;;;21.95;11.60;;;;;;;;;;4935892;29;20074;-57
2023/03/07 09:36:55;;;;;;;18.30;11.27;;;;;;;;;;4936216;29;20019;-63
2023/03/07 09:39:21;;;;;;;20.10;11.55;;;;;;;;;;4935336;29;20054;-56
2023/03/07 09:41:59;;;;;;;21.17;11.13;;;;;;;;;;4936158;29;20027;-57
2023/03/07 09:44:25;;;;;;;20.48;11.23;;;;;;;;;;4935302;29;20036;-57
2023/03/07 09:46:54;;;;;;;20.92;11.60;;;;;;;;;;4935544;29;20456;-73
2023/03/07 09:49:23;;;;;;;19.90;10.90;;;;;;;;;;4935399;29;20023;-57
2023/03/07 09:51:51;;;;;;;19.52;12.05;;;;;;;;;;4935552;29;20487;-57
2023/03/07 09:54:21;;;;;;;21.23;12.10;;;;;;;;;;4934975;29;20163;-56
2023/03/07 09:56:55;;;;;;;18.98;11.38;;;;;;;;;;4935759;29;20039;-57
2023/03/07 09:59:24;;;;;;;24.45;12.23;;;;;;;;;;4935515;29;20059;-72
2023/03/07 10:01:57;;;;;;;21.83;11.60;;;;;;;;;;4935444;29;20027;-57
2023/03/07 10:04:32;;;;;;;21.65;11.02;;;;;;;;;;4935478;29;20597;-57
2023/03/07 10:06:59;;;;;;;19.42;10.73;;;;;;;;;;4935051;29;20047;-57
2023/03/07 10:09:25;;;;;;;18.88;10.80;;;;;;;;;;4934934;29;20067;-56
2023/03/07 10:12:04;;;;;;;20.50;10.43;;;;;;;;;;4935326;29;20063;-57
2023/03/07 10:14:39;;;;;;;24.77;10.30;;;;;;;;;;4934987;29;20059;-57
2023/03/07 10:17:05;;;;;;;17.95;10.30;;;;;;;;;;4917125;29;20123;-56
2023/03/07 10:19:38;;;;;;;19.52;11.10;;;;;;;;;;4935140;29;20543;-58
2023/03/07 10:22:22;;;;;;;18.33;10.45;;;;;;;;;;4935003;29;20038;-57
2023/03/07 10:25:07;;;;;;;20.90;10.38;;;;;;;;;;4934480;29;20031;-56
2023/03/07 10:27:33;;;;;;;18.92;9.27;;;;;;;;;;4934961;29;20365;-56
2023/03/07 10:30:00;;;;;;;16.67;8.65;;;;;;;;;;4934673;29;20064;-57
2023/03/07 10:32:29;;;;;;;16.75;8.05;;;;;;;;;;4934330;29;20015;-66
2023/03/07 10:35:01;;;;;;;19.35;10.18;;;;;;;;;;4934654;29;20122;-73
2023/03/07 10:37:42;;;;;;;22.65;11.65;;;;;;;;;;4934568;29;20507;-61
2023/03/07 10:40:14;;;;;;;15.57;8.07;;;;;;;;;;4933819;29;20052;-67
2023/03/07 10:42:41;;;;;;;14.07;8.18;;;;;;;;;;4934873;29;20384;-73
2023/03/07 10:45:07;;;;;;;12.63;7.50;;;;;;;;;;4934726;29;20388;-60
2023/03/07 10:47:33;;;;;;;13.35;8.30;;;;;;;;;;4934743;29;20047;-57
2023/03/07 10:50:12;;;;;;;19.13;10.48;;;;;;;;;;4934414;29;20432;-56
2023/03/07 10:52:40;;;;;;;26.38;12.10;;;;;;;;;;4916302;29;20081;-58
2023/03/07 10:55:24;;;;;;;21.35;11.43;;;;;;;;;;4933369;29;20019;-57
2023/03/07 10:57:50;;;;;;;21.67;10.55;;;;;;;;;;4934317;29;20027;-57
2023/03/07 11:00:17;;;;;;;22.48;10.88;;;;;;;;;;4934159;29;20102;-57
2023/03/07 11:02:45;;;;;;;21.98;11.65;;;;;;;;;;4931720;29;20032;-73
2023/03/07 11:05:23;;;;;;;22.52;11.38;;;;;;;;;;4934303;29;20070;-57
2023/03/07 11:07:49;;;;;;;19.52;11.13;;;;;;;;;;4933884;29;20035;-57
2023/03/07 11:10:25;;;;;;;18.48;11.63;;;;;;;;;;4933734;29;20118;-58
2023/03/07 11:12:51;;;;;;;18.52;9.93;;;;;;;;;;4933060;29;20083;-58
2023/03/07 11:15:23;;;;;;;17.83;9.77;;;;;;;;;;4926367;29;20036;-71
2023/03/07 11:17:49;;;;;;;18.00;9.98;;;;;;;;;;4915249;29;20472;-73
2023/03/07 11:20:18;;;;;;;18.17;10.57;;;;;;;;;;4914796;29;20032;-58
2023/03/07 11:22:45;;;;;;;14.38;7.65;;;;;;;;;;4914239;29;20032;-63
2023/03/07 11:25:17;;;;;;;14.82;7.35;;;;;;;;;;4914725;29;20046;-58
2023/03/07 11:27:56;;;;;;;17.10;8.15;;;;;;;;;;4914670;29;20020;-61
2023/03/07 11:30:23;;;;;;;14.27;7.90;;;;;;;;;;4914926;29;20036;-58
2023/03/07 11:33:00;;;;;;;14.68;8.57;;;;;;;;;;4914459;29;20020;-58
2023/03/07 11:35:41;;;;;;;18.98;9.00;;;;;;;;;;4914491;29;20041;-72
2023/03/07 11:38:13;;;;;;;13.57;8.00;;;;;;;;;;4914416;29;20032;-67
2023/03/07 11:40:49;;;;;;;16.48;8.60;;;;;;;;;;4914437;29;20400;-62
2023/03/07 11:43:39;;;;;;;10.00;5.45;;;;;;;;;;4914823;29;20031;-58
2023/03/07 11:46:17;;;;;;;12.25;6.75;;;;;;;;;;4914554;29;20059;-70
2023/03/07 11:48:43;;;;;;;15.05;6.50;;;;;;;;;;4914580;29;20039;-66
2023/03/07 11:51:25;;;;;;;9.85;4.50;;;;;;;;;;4914367;29;20028;-67
2023/03/07 11:53:52;;;;;;;;;;;;;;;;;;4920202;29;20077;-69
2023/03/07 11:56:44;;;;;;;8.57;4.55;;;;;;;;;;4924080;29;19962;-59
2023/03/07 11:59:10;;;;;;;10.25;4.43;;;;;;;;;;4910758;29;20059;-58
2023/03/07 12:01:40;;;;;;;7.93;3.60;;;;;;;;;;4914446;29;20024;-58
2023/03/07 12:04:12;;;;;;;9.00;3.63;;;;;;;;;;4914173;29;20040;-65
2023/03/07 12:06:43;;;;;;;8.68;3.83;;;;;;;;;;4914258;29;20036;-59
2023/03/07 12:09:28;;;;;;;7.68;4.50;;;;;;;;;;4914324;29;20044;-66
2023/03/07 12:12:12;;;;;;;8.00;3.65;;;;;;;;;;4913705;29;20449;-63
2023/03/07 12:14:38;;;;;;;11.48;5.30;;;;;;;;;;4914500;29;20163;-64
2023/03/07 12:17:05;;;;;;;10.10;4.85;;;;;;;;;;4914314;29;20462;-72
2023/03/07 12:19:31;;;;;;;9.60;4.20;;;;;;;;;;4914040;29;20024;-59
2023/03/07 12:22:00;;;;;;;7.63;4.30;;;;;;;;;;4914227;29;20034;-66
2023/03/07 12:24:28;;;;;;;9.60;4.88;;;;;;;;;;4913924;29;20028;-64
2023/03/07 12:27:16;;;;;;;9.30;4.68;;;;;;;;;;4913817;29;20565;-67
2023/03/07 12:30:03;;;;;;;6.72;3.97;;;;;;;;;;4914333;29;20095;-68
2023/03/07 12:32:30;;;;;;;7.78;3.85;;;;;;;;;;4913245;29;20464;-60
2023/03/07 12:35:03;;;;;;;6.70;3.03;;;;;;;;;;4914315;29;20436;-62
2023/03/07 12:37:53;;;;;;;6.22;3.40;;;;;;;;;;4914447;29;20500;-69
2023/03/07 12:40:20;;;;;;;7.20;3.83;;;;;;;;;;4836876;29;20421;-63
2023/03/07 12:42:46;;;;;;;10.88;3.65;;;;;;;;;;4837741;29;20038;-65
2023/03/07 12:45:15;;;;;;;7.85;4.03;;;;;;;;;;4837607;29;20072;-67
2023/03/07 12:47:44;;;;;;;9.23;3.67;;;;;;;;;;4838571;29;20038;-62
2023/03/07 12:50:29;;;;;;;6.70;4.15;;;;;;;;;;4841283;29;20560;-67
2023/03/07 12:53:15;;;;;;;6.30;3.38;;;;;;;;;;4840987;29;20030;-62
2023/03/07 12:55:44;;;;;;;8.18;3.78;;;;;;;;;;4841102;29;20034;-62
2023/03/07 12:58:34;;;;;;;11.98;5.63;;;;;;;;;;4841174;29;20045;-62
2023/03/07 13:01:13;;;;;;;6.80;3.33;;;;;;;;;;4841076;29;20078;-71
2023/03/07 13:04:08;;;;;;;7.57;4.03;;;;;;;;;;4841089;29;20526;-62
2023/03/07 13:06:38;;;;;;;6.85;3.13;;;;;;;;;;4768519;29;20064;-62
2023/03/07 13:09:05;;;;;;;9.00;3.80;;;;;;;;;;4768281;30;20046;-62
2023/03/07 13:11:32;;;;;;;8.20;3.90;;;;;;;;;;4768027;30;20232;-62
2023/03/07 13:14:02;;;;;;;6.35;3.25;;;;;;;;;;4768241;30;20032;-62
2023/03/07 13:16:33;;;;;;;7.63;3.53;;;;;;;;;;4776665;29;20165;-62
2023/03/07 13:19:17;;;;;;;9.10;3.63;;;;;;;;;;4822073;29;20503;-62
2023/03/07 13:21:44;;;;;;;7.40;3.47;;;;;;;;;;4822389;29;20042;-66
2023/03/07 13:24:37;;;;;;;7.90;3.03;;;;;;;;;;4822221;29;20053;-62
2023/03/07 13:27:04;;;;;;;7.93;3.75;;;;;;;;;;4820258;29;20435;-62
2023/03/07 13:29:48;;;;;;;6.75;3.90;;;;;;;;;;4821823;29;20030;-62
2023/03/07 13:32:33;;;;;;;7.45;3.55;;;;;;;;;;4822067;29;20092;-62
2023/03/07 13:34:59;;;;;;;8.48;3.85;;;;;;;;;;4821946;29;20038;-62
2023/03/07 13:37:44;;;;;;;8.20;4.10;;;;;;;;;;4821750;29;20034;-62
2023/03/07 13:40:25;;;;;;;9.23;3.88;;;;;;;;;;4821172;29;20066;-62
2023/03/07 13:42:51;;;;;;;7.25;4.10;;;;;;;;;;4856048;29;20045;-62
2023/03/07 13:45:45;;;;;;;10.35;4.25;;;;;;;;;;4898001;29;20028;-66
2023/03/07 13:48:14;;;;;;;8.40;3.85;;;;;;;;;;4898027;29;20477;-62
2023/03/07 13:50:55;;;;;;;11.05;4.45;;;;;;;;;;4897878;29;20032;-63
2023/03/07 13:53:30;;;;;;;8.60;4.32;;;;;;;;;;4897898;29;20040;-62
2023/03/07 13:56:27;;;;;;;10.95;4.35;;;;;;;;;;4897117;29;20430;-62
2023/03/07 13:58:56;;;;;;;15.38;5.20;;;;;;;;;;4925114;29;20395;-62
2023/03/07 14:01:24;;;;;;;10.52;5.22;;;;;;;;;;4933138;29;20047;-63
2023/03/07 14:04:04;;;;;;;11.77;5.10;;;;;;;;;;4933580;29;20024;-63
2023/03/07 14:06:30;;;;;;;11.10;4.88;;;;;;;;;;4932013;29;20408;-62
2023/03/07 14:08:58;;;;;;;10.68;5.47;;;;;;;;;;4923381;29;20032;-63
2023/03/07 14:11:31;;;;;;;8.30;4.60;;;;;;;;;;4924547;29;20035;-68
2023/03/07 14:14:03;;;;;;;7.55;4.13;;;;;;;;;;4925897;29;20020;-66
2023/03/07 14:16:32;;;;;;;11.52;4.40;;;;;;;;;;4925262;29;20024;-62
2023/03/07 14:18:58;;;;;;;9.90;4.35;;;;;;;;;;4921182;29;20035;-70
2023/03/07 14:21:43;;;;;;;7.65;4.10;;;;;;;;;;4924596;29;20024;-63
2023/03/07 14:24:27;;;;;;;9.23;4.45;;;;;;;;;;4923536;29;20140;-64
2023/03/07 14:26:56;;;;;;;14.35;7.50;;;;;;;;;;4924543;29;20043;-64
2023/03/07 14:29:24;;;;;;;9.13;5.30;;;;;;;;;;4935270;29;20058;-63
2023/03/07 14:31:52;;;;;;;10.13;5.10;;;;;;;;;;4935527;29;20028;-68
2023/03/07 14:34:20;;;;;;;7.53;4.20;;;;;;;;;;4935281;29;20024;-60
2023/03/07 14:36:49;;;;;;;7.78;3.85;;;;;;;;;;4935282;29;20372;-59
2023/03/07 14:39:15;;;;;;;14.60;8.88;;;;;;;;;;4927783;29;20134;-63
2023/03/07 14:42:13;;;;;;;13.02;6.30;;;;;;;;;;4933580;29;20023;-65
2023/03/07 14:44:56;;;;;;;8.80;4.85;;;;;;;;;;4874719;29;20033;-71
2023/03/07 14:47:24;;;;;;;11.90;5.22;;;;;;;;;;4874616;29;20053;-60
2023/03/07 14:50:08;;;;;;;7.53;4.45;;;;;;;;;;4874741;29;20041;-60
2023/03/07 14:52:34;;;;;;;12.15;6.03;;;;;;;;;;4874573;29;20037;-71
2023/03/07 14:55:02;;;;;;;10.50;5.03;;;;;;;;;;4874488;29;20033;-72
2023/03/07 14:57:36;;;;;;;10.82;5.32;;;;;;;;;;4874385;29;20116;-65
2023/03/07 15:00:05;;;;;;;12.20;5.65;;;;;;;;;;4874272;29;20041;-60
2023/03/07 15:02:31;;;;;;;16.52;9.93;;;;;;;;;;4874749;29;20041;-72
2023/03/07 15:04:57;;;;;;;20.15;10.13;;;;;;;;;;4874437;29;20064;-70
2023/03/07 15:07:23;;;;;;;18.42;8.98;;;;;;;;;;4874587;29;20205;-71
2023/03/07 15:09:49;;;;;;;18.33;9.75;;;;;;;;;;4876094;29;20029;-60
2023/03/07 15:12:17;;;;;;;12.48;6.80;;;;;;;;;;4873783;29;20148;-60
2023/03/07 15:14:46;;;;;;;11.00;5.10;;;;;;;;;;4874189;29;20056;-72
2023/03/07 15:17:16;;;;;;;8.27;4.43;;;;;;;;;;4874100;29;20059;-61
2023/03/07 15:19:44;;;;;;;8.93;4.72;;;;;;;;;;4889827;29;20055;-60
2023/03/07 15:22:16;;;;;;;9.90;5.28;;;;;;;;;;4932509;29;20055;-58
2023/03/07 15:24:46;;;;;;;12.70;6.85;;;;;;;;;;4933142;29;20662;-60
2023/03/07 15:27:13;;;;;;;12.10;6.43;;;;;;;;;;4933614;29;20043;-60
2023/03/07 15:29:45;;;;;;;17.10;9.15;;;;;;;;;;4933802;29;20110;-60
2023/03/07 15:32:27;;;;;;;18.35;9.57;;;;;;;;;;4933265;29;20028;-61
2023/03/07 15:35:11;;;;;;;10.38;5.53;;;;;;;;;;4933797;29;20057;-60
2023/03/07 15:37:56;;;;;;;8.35;4.93;;;;;;;;;;4916878;29;20027;-62
2023/03/07 15:40:25;;;;;;;11.10;5.35;;;;;;;;;;4933210;29;20067;-60
2023/03/07 15:42:56;;;;;;;8.48;4.32;;;;;;;;;;4933739;29;20649;-72
2023/03/07 15:45:37;;;;;;;7.68;4.35;;;;;;;;;;4933220;29;20047;-58
2023/03/07 15:48:29;;;;;;;8.82;4.70;;;;;;;;;;4933939;29;20479;-72
2023/03/07 15:50:57;;;;;;;12.88;4.55;;;;;;;;;;4904256;29;20040;-76
2023/03/07 15:53:26;;;;;;;8.82;4.40;;;;;;;;;;4933931;29;20039;-67
2023/03/07 15:55:57;;;;;;;10.63;4.32;;;;;;;;;;4933944;29;20457;-79
2023/03/07 15:58:23;;;;;;;11.48;4.90;;;;;;;;;;4933626;29;20118;-60
2023/03/07 16:00:50;;;;;;;10.73;5.25;;;;;;;;;;4933440;29;20032;-66
2023/03/07 16:03:22;;;;;;;10.02;5.05;;;;;;;;;;4932829;29;20546;-60
2023/03/07 16:05:48;;;;;;;9.73;4.68;;;;;;;;;;4932107;29;20114;-59
2023/03/07 16:08:15;;;;;;;13.15;6.65;;;;;;;;;;4931922;29;20409;-75
2023/03/07 16:10:45;;;;;;;10.00;4.88;;;;;;;;;;4931763;29;20020;-67
2023/03/07 16:13:14;;;;;;;10.05;4.95;;;;;;;;;;4932374;29;20103;-63
2023/03/07 16:15:40;;;;;;;11.43;5.15;;;;;;;;;;4932818;29;20514;-59
2023/03/07 16:18:06;;;;;;;21.10;9.10;;;;;;;;;;4932997;29;20032;-60
2023/03/07 16:20:32;;;;;;;17.75;9.80;;;;;;;;;;4933547;29;20043;-60
2023/03/07 16:22:58;;;;;;;12.30;5.30;;;;;;;;;;4936663;29;20028;-62
2023/03/07 16:25:27;;;;;;;12.18;5.28;;;;;;;;;;4937309;29;20127;-60
2023/03/07 16:27:55;;;;;;;19.65;9.90;;;;;;;;;;4937355;29;20031;-63
2023/03/07 16:30:24;;;;;;;18.35;9.30;;;;;;;;;;4937452;29;20075;-79
2023/03/07 16:32:50;;;;;;;25.80;12.90;;;;;;;;;;4936934;29;20042;-58
2023/03/07 16:35:18;;;;;;;27.30;12.82;;;;;;;;;;4937828;29;20063;-60
2023/03/07 16:37:44;;;;;;;24.10;12.98;;;;;;;;;;4937635;29;20083;-59
2023/03/07 16:40:11;;;;;;;31.50;15.07;;;;;;;;;;4936370;29;20060;-87
2023/03/07 16:42:37;;;;;;;33.72;16.48;;;;;;;;;;4936237;29;20408;-63
2023/03/07 16:45:11;;;;;;;30.33;15.57;;;;;;;;;;4937512;29;20031;-58
2023/03/07 16:47:37;;;;;;;30.80;15.30;;;;;;;;;;4937319;29;20453;-84
2023/03/07 16:50:03;;;;;;;29.20;15.38;;;;;;;;;;4937520;29;20044;-82
2023/03/07 16:52:29;;;;;;;33.10;15.18;;;;;;;;;;4936857;29;20086;-63
2023/03/07 16:54:55;;;;;;;32.45;15.60;;;;;;;;;;4937107;29;20514;-75
2023/03/07 16:57:21;;;;;;;27.25;14.98;;;;;;;;;;4936964;29;20031;-87
2023/03/07 16:59:47;;;;;;;32.20;16.38;;;;;;;;;;4937003;29;20060;-58
2023/03/07 17:02:18;;;;;;;32.97;17.08;;;;;;;;;;4937371;29;20043;-71
2023/03/07 17:04:44;;;;;;;35.20;17.80;;;;;;;;;;4936862;29;20028;-58
2023/03/07 17:07:25;;;;;;;36.90;19.70;;;;;;;;;;4937421;29;20039;-92
2023/03/07 17:09:52;;;;;;;41.40;20.25;;;;;;;;;;4937023;29;20055;-70
2023/03/07 17:12:20;;;;;;;45.90;23.35;;;;;;;;;;4935367;29;20019;-58
2023/03/07 17:14:46;;;;;;;41.20;21.45;;;;;;;;;;4931913;29;20075;-66
2023/03/07 17:17:28;;;;;;;50.30;27.15;;;;;;;;;;4935431;29;20027;-59
2023/03/07 17:19:54;;;;;;;65.70;34.33;;;;;;;;;;4936286;29;20070;-68
2023/03/07 17:22:20;;;;;;;65.20;35.90;;;;;;;;;;4932047;29;20066;-59
2023/03/07 17:24:46;;;;;;;83.05;41.20;;;;;;;;;;4932452;29;20085;-59
2023/03/07 17:27:12;;;;;;;86.10;45.83;;;;;;;;;;4931153;29;20960;-62
2023/03/07 17:29:40;;;;;;;88.63;46.28;;;;;;;;;;4933418;29;20357;-59
2023/03/07 17:32:06;;;;;;;90.22;44.75;;;;;;;;;;4927662;29;20042;-68
2023/03/07 17:34:33;;;;;;;84.85;44.67;;;;;;;;;;4929644;29;20035;-71
2023/03/07 17:36:59;;;;;;;89.47;44.45;;;;;;;;;;4930149;29;20031;-59
2023/03/07 17:39:28;;;;;;;90.72;46.03;;;;;;;;;;4921227;29;20116;-59
2023/03/07 17:41:54;;;;;;;92.88;46.45;;;;;;;;;;4911655;29;20020;-70
2023/03/07 17:44:20;;;;;;;102.88;51.03;;;;;;;;;;4914741;29;20036;-62
2023/03/07 17:46:46;;;;;;;101.05;50.45;;;;;;;;;;4911751;29;20048;-68
2023/03/07 17:49:12;;;;;;;97.45;50.17;;;;;;;;;;4897483;29;20123;-70
2023/03/07 17:51:38;;;;;;;94.82;49.65;;;;;;;;;;4896767;29;20489;-68
2023/03/07 17:54:08;;;;;;;105.10;53.70;;;;;;;;;;4897277;29;20078;-65
2023/03/07 17:56:34;;;;;;;108.25;53.97;;;;;;;;;;4897154;29;20040;-70
2023/03/07 17:59:00;;;;;;;112.38;57.65;;;;;;;;;;4904200;29;20144;-68
2023/03/07 18:01:28;;;;;;;128.52;62.10;;;;;;;;;;4915907;29;20032;-62
2023/03/07 18:03:54;;;;;;;114.55;58.08;;;;;;;;;;4909371;29;20115;-59
2023/03/07 18:06:20;;;;;;;102.03;52.70;;;;;;;;;;4916224;29;20127;-58
2023/03/07 18:08:46;;;;;;;106.78;53.80;;;;;;;;;;4916263;29;20036;-59
2023/03/07 18:11:12;;;;;;;97.35;51.17;;;;;;;;;;4916491;29;20127;-63
2023/03/07 18:13:39;;;;;;;94.55;49.33;;;;;;;;;;4914210;29;20103;-58
2023/03/07 18:16:06;;;;;;;98.15;50.67;;;;;;;;;;4916354;29;20397;-59
2023/03/07 18:18:33;;;;;;;100.80;53.83;;;;;;;;;;4916078;29;20036;-59
2023/03/07 18:21:03;;;;;;;99.32;53.35;;;;;;;;;;4916647;29;20472;-64
2023/03/07 18:23:29;;;;;;;81.38;43.80;;;;;;;;;;4916293;29;20036;-67
2023/03/07 18:25:59;;;;;;;84.47;43.72;;;;;;;;;;4915912;29;20503;-58
2023/03/07 18:28:26;;;;;;;82.10;42.67;;;;;;;;;;4915701;29;20079;-58
2023/03/07 18:31:02;;;;;;;80.78;42.83;;;;;;;;;;4915865;29;20075;-61
2023/03/07 18:33:29;;;;;;;77.72;42.70;;;;;;;;;;4916210;29;20039;-59
2023/03/07 18:35:56;;;;;;;78.13;39.22;;;;;;;;;;4912953;29;20032;-58
2023/03/07 18:38:22;;;;;;;78.88;41.90;;;;;;;;;;4912317;29;20048;-59
2023/03/07 18:40:48;;;;;;;89.10;45.72;;;;;;;;;;4933505;29;20059;-66
2023/03/07 18:43:14;;;;;;;100.65;50.47;;;;;;;;;;4934675;29;20067;-59
2023/03/07 18:45:41;;;;;;;105.88;53.47;;;;;;;;;;4933765;29;20048;-59
2023/03/07 18:48:07;;;;;;;113.57;58.15;;;;;;;;;;4930842;29;20028;-59
2023/03/07 18:50:33;;;;;;;101.85;50.85;;;;;;;;;;4923468;29;20499;-58
2023/03/07 18:52:59;;;;;;;101.78;51.47;;;;;;;;;;4920065;29;20028;-58
2023/03/07 18:55:25;;;;;;;98.15;48.33;;;;;;;;;;4924846;29;20133;-78
2023/03/07 18:57:51;;;;;;;64.68;32.30;;;;;;;;;;4930044;29;20046;-59
2023/03/07 19:00:18;;;;;;;64.38;35.72;;;;;;;;;;4927034;29;20032;-58
2023/03/07 19:02:44;;;;;;;40.70;22.88;;;;;;;;;;4923633;29;20028;-78
2023/03/07 19:05:10;;;;;;;36.00;20.05;;;;;;;;;;4926429;29;20551;-57
2023/03/07 19:07:36;;;;;;;38.28;20.48;;;;;;;;;;4932264;29;20380;-65
2023/03/07 19:10:03;;;;;;;37.13;19.30;;;;;;;;;;4933919;29;20123;-58
2023/03/07 19:12:29;;;;;;;27.90;15.68;;;;;;;;;;4934577;29;20020;-71
2023/03/07 19:14:55;;;;;;;26.77;14.25;;;;;;;;;;4930514;29;20059;-58
2023/03/07 19:17:21;;;;;;;28.95;14.73;;;;;;;;;;4923858;29;20024;-58
2023/03/07 19:19:47;;;;;;;25.05;13.38;;;;;;;;;;4915359;29;20034;-61
2023/03/07 19:22:14;;;;;;;24.42;12.63;;;;;;;;;;4919280;29;20050;-60
2023/03/07 19:24:40;;;;;;;26.23;13.77;;;;;;;;;;4916516;29;20653;-60
2023/03/07 19:27:06;;;;;;;22.35;11.88;;;;;;;;;;4914701;29;20051;-60
2023/03/07 19:29:33;;;;;;;23.80;12.07;;;;;;;;;;4914460;29;20527;-59
2023/03/07 19:31:59;;;;;;;23.55;12.50;;;;;;;;;;4920646;29;20083;-60
2023/03/07 19:34:25;;;;;;;24.25;12.07;;;;;;;;;;4934061;29;20020;-68
2023/03/07 19:36:51;;;;;;;20.67;10.30;;;;;;;;;;4927114;29;20031;-56
2023/03/07 19:39:19;;;;;;;21.90;11.50;;;;;;;;;;4926291;29;20070;-58
2023/03/07 19:41:46;;;;;;;22.45;11.45;;;;;;;;;;4932908;29;20044;-63
2023/03/07 19:44:13;;;;;;;23.55;12.93;;;;;;;;;;4931984;29;20024;-58
2023/03/07 19:46:41;;;;;;;19.52;10.95;;;;;;;;;;4931661;29;20050;-75
2023/03/07 19:49:08;;;;;;;24.23;13.88;;;;;;;;;;4932627;29;20020;-58
2023/03/07 19:51:34;;;;;;;24.50;12.48;;;;;;;;;;4932100;29;20032;-61
2023/03/07 19:54:00;;;;;;;21.15;12.63;;;;;;;;;;4931285;29;20055;-58
2023/03/07 19:56:28;;;;;;;29.02;14.07;;;;;;;;;;4932205;29;20122;-58
2023/03/07 19:58:54;;;;;;;27.63;14.40;;;;;;;;;;4931742;29;20619;-67
2023/03/07 20:01:21;;;;;;;27.15;14.70;;;;;;;;;;4931977;29;20038;-58
2023/03/07 20:03:47;;;;;;;33.25;17.20;;;;;;;;;;4915678;29;20764;-61
2023/03/07 20:06:17;;;;;;;29.90;17.08;;;;;;;;;;4932956;29;20039;-65
2023/03/07 20:08:50;;;;;;;31.17;16.35;;;;;;;;;;4933623;29;20051;-67
2023/03/07 20:11:17;;;;;;;27.60;15.10;;;;;;;;;;4933277;29;20032;-73
2023/03/07 20:13:47;;;;;;;31.50;16.73;;;;;;;;;;4933211;29;20024;-59
2023/03/07 20:16:14;;;;;;;29.85;15.80;;;;;;;;;;4915280;29;20475;-59